sensor_id;sensor_type;location;lat;lon;timestamp;temperature;humidity
8313;DHT22;4194;43.408;24.626;2024-01-10T00:02:01;-3.80;99.90
8313;DHT22;4194;43.408;24.626;2024-01-10T00:04:27;-3.90;99.90
8313;DHT22;4194;43.408;24.626;2024-01-10T00:06:52;-5.00;99.90
8313;DHT22;4194;43.408;24.626;2024-01-10T00:09:18;-4.80;99.90
8313;DHT22;4194;43.408;24.626;2024-01-10T00:11:44;-4.70;99.90
8313;DHT22;4194;43.408;24.626;2024-01-10T00:14:10;-5.10;99.90
8313;DHT22;4194;43.408;24.626;2024-01-10T00:16:36;-4.90;99.90
8313;DHT22;4194;43.408;24.626;2024-01-10T00:19:01;-4.80;99.90
8313;DHT22;4194;43.408;24.626;2024-01-10T00:21:28;-4.70;99.90
8313;DHT22;4194;43.408;24.626;2024-01-10T00:23:53;-4.80;99.90
8313;DHT22;4194;43.408;24.626;2024-01-10T00:26:19;-4.70;99.90
8313;DHT22;4194;43.408;24.626;2024-01-10T00:28:45;-5.20;99.90
8313;DHT22;4194;43.408;24.626;2024-01-10T00:31:14;-4.80;99.90
8313;DHT22;4194;43.408;24.626;2024-01-10T00:33:40;-4.90;99.90
8313;DHT22;4194;43.408;24.626;2024-01-10T00:36:06;-4.10;99.90
8313;DHT22;4194;43.408;24.626;2024-01-10T00:38:32;-5.10;99.90
8313;DHT22;4194;43.408;24.626;2024-01-10T00:40:58;-5.20;99.90
8313;DHT22;4194;43.408;24.626;2024-01-10T00:43:24;-4.90;99.90
8313;DHT22;4194;43.408;24.626;2024-01-10T00:45:50;-4.80;99.90
8313;DHT22;4194;43.408;24.626;2024-01-10T00:48:15;-4.60;99.90
8313;DHT22;4194;43.408;24.626;2024-01-10T00:50:43;-5.00;99.90
8313;DHT22;4194;43.408;24.626;2024-01-10T00:53:09;-3.90;99.90
8313;DHT22;4194;43.408;24.626;2024-01-10T00:55:35;-5.20;99.90
8313;DHT22;4194;43.408;24.626;2024-01-10T00:58:01;-4.40;99.90
8313;DHT22;4194;43.408;24.626;2024-01-10T01:00:27;-4.80;99.90
8313;DHT22;4194;43.408;24.626;2024-01-10T01:02:52;-4.70;99.90
8313;DHT22;4194;43.408;24.626;2024-01-10T01:05:18;-5.40;99.90
8313;DHT22;4194;43.408;24.626;2024-01-10T01:07:43;-5.40;99.90
8313;DHT22;4194;43.408;24.626;2024-01-10T01:10:09;-5.40;99.90
8313;DHT22;4194;43.408;24.626;2024-01-10T01:12:35;-6.10;99.90
8313;DHT22;4194;43.408;24.626;2024-01-10T01:15:01;-5.90;99.90
8313;DHT22;4194;43.408;24.626;2024-01-10T01:17:26;-5.60;99.90
8313;DHT22;4194;43.408;24.626;2024-01-10T01:19:52;-5.30;99.90
8313;DHT22;4194;43.408;24.626;2024-01-10T01:22:17;-6.00;99.90
8313;DHT22;4194;43.408;24.626;2024-01-10T01:24:43;-5.60;99.90
8313;DHT22;4194;43.408;24.626;2024-01-10T01:27:09;-5.20;99.90
8313;DHT22;4194;43.408;24.626;2024-01-10T01:29:35;-5.40;99.90
8313;DHT22;4194;43.408;24.626;2024-01-10T01:32:00;-5.00;99.90
8313;DHT22;4194;43.408;24.626;2024-01-10T01:34:26;-5.60;99.90
8313;DHT22;4194;43.408;24.626;2024-01-10T01:36:52;-5.90;99.90
8313;DHT22;4194;43.408;24.626;2024-01-10T01:39:20;-6.40;99.90
8313;DHT22;4194;43.408;24.626;2024-01-10T01:41:46;-4.80;99.90
8313;DHT22;4194;43.408;24.626;2024-01-10T01:44:11;-5.90;99.90
8313;DHT22;4194;43.408;24.626;2024-01-10T01:46:37;-5.90;99.90
8313;DHT22;4194;43.408;24.626;2024-01-10T01:49:05;-5.70;99.90
8313;DHT22;4194;43.408;24.626;2024-01-10T01:51:33;-6.10;99.90
8313;DHT22;4194;43.408;24.626;2024-01-10T01:54:00;-6.00;99.90
8313;DHT22;4194;43.408;24.626;2024-01-10T01:56:26;-5.60;99.90
8313;DHT22;4194;43.408;24.626;2024-01-10T01:58:52;-5.50;99.90
8313;DHT22;4194;43.408;24.626;2024-01-10T02:01:19;-6.10;99.90
8313;DHT22;4194;43.408;24.626;2024-01-10T02:03:48;-6.20;99.90
8313;DHT22;4194;43.408;24.626;2024-01-10T02:06:13;-5.80;99.90
8313;DHT22;4194;43.408;24.626;2024-01-10T02:08:39;-6.60;99.90
8313;DHT22;4194;43.408;24.626;2024-01-10T02:11:05;-6.40;99.90
8313;DHT22;4194;43.408;24.626;2024-01-10T02:13:34;-5.40;99.90
8313;DHT22;4194;43.408;24.626;2024-01-10T02:16:01;-6.30;99.90
8313;DHT22;4194;43.408;24.626;2024-01-10T02:18:28;-6.60;99.90
8313;DHT22;4194;43.408;24.626;2024-01-10T02:20:54;-6.30;99.90
8313;DHT22;4194;43.408;24.626;2024-01-10T02:23:20;-5.70;99.90
8313;DHT22;4194;43.408;24.626;2024-01-10T02:25:45;-6.40;99.90
8313;DHT22;4194;43.408;24.626;2024-01-10T02:28:11;-6.50;99.90
8313;DHT22;4194;43.408;24.626;2024-01-10T02:30:37;-6.10;99.90
8313;DHT22;4194;43.408;24.626;2024-01-10T02:33:03;-5.80;99.90
8313;DHT22;4194;43.408;24.626;2024-01-10T02:35:29;-6.90;99.90
8313;DHT22;4194;43.408;24.626;2024-01-10T02:37:58;-7.00;99.90
8313;DHT22;4194;43.408;24.626;2024-01-10T02:40:24;-6.50;99.90
8313;DHT22;4194;43.408;24.626;2024-01-10T02:42:49;-6.40;99.90
8313;DHT22;4194;43.408;24.626;2024-01-10T02:45:17;-7.00;99.90
8313;DHT22;4194;43.408;24.626;2024-01-10T02:47:42;-7.10;99.90
8313;DHT22;4194;43.408;24.626;2024-01-10T02:50:08;-6.90;99.90
8313;DHT22;4194;43.408;24.626;2024-01-10T02:52:34;-7.10;99.90
8313;DHT22;4194;43.408;24.626;2024-01-10T02:55:00;-7.20;99.90
8313;DHT22;4194;43.408;24.626;2024-01-10T02:57:25;-6.90;99.90
8313;DHT22;4194;43.408;24.626;2024-01-10T02:59:51;-7.20;99.90
8313;DHT22;4194;43.408;24.626;2024-01-10T03:02:17;-7.10;99.90
8313;DHT22;4194;43.408;24.626;2024-01-10T03:04:43;-6.50;99.90
8313;DHT22;4194;43.408;24.626;2024-01-10T03:07:10;-7.40;99.90
8313;DHT22;4194;43.408;24.626;2024-01-10T03:09:35;-7.00;99.90
8313;DHT22;4194;43.408;24.626;2024-01-10T03:12:01;-5.00;99.90
8313;DHT22;4194;43.408;24.626;2024-01-10T03:14:27;-7.00;99.90
8313;DHT22;4194;43.408;24.626;2024-01-10T03:16:52;-7.00;99.90
8313;DHT22;4194;43.408;24.626;2024-01-10T03:19:19;-6.90;99.90
8313;DHT22;4194;43.408;24.626;2024-01-10T03:21:44;-7.00;99.90
8313;DHT22;4194;43.408;24.626;2024-01-10T03:24:10;-7.10;99.90
8313;DHT22;4194;43.408;24.626;2024-01-10T03:26:36;-7.00;99.90
8313;DHT22;4194;43.408;24.626;2024-01-10T03:29:02;-6.90;99.90
8313;DHT22;4194;43.408;24.626;2024-01-10T03:31:29;-7.30;99.90
8313;DHT22;4194;43.408;24.626;2024-01-10T03:33:56;-7.80;99.90
8313;DHT22;4194;43.408;24.626;2024-01-10T03:36:22;-7.90;99.90
8313;DHT22;4194;43.408;24.626;2024-01-10T03:38:47;-6.40;99.90
8313;DHT22;4194;43.408;24.626;2024-01-10T03:41:17;-6.60;99.90
8313;DHT22;4194;43.408;24.626;2024-01-10T03:43:43;-7.10;99.90
8313;DHT22;4194;43.408;24.626;2024-01-10T03:46:10;-7.60;99.90
8313;DHT22;4194;43.408;24.626;2024-01-10T03:48:35;-8.30;99.90
8313;DHT22;4194;43.408;24.626;2024-01-10T03:51:02;-8.10;99.90
8313;DHT22;4194;43.408;24.626;2024-01-10T03:53:28;-7.30;99.90
8313;DHT22;4194;43.408;24.626;2024-01-10T03:55:54;-7.50;99.90
8313;DHT22;4194;43.408;24.626;2024-01-10T03:58:20;-7.90;99.90
8313;DHT22;4194;43.408;24.626;2024-01-10T04:00:46;-7.70;99.90
8313;DHT22;4194;43.408;24.626;2024-01-10T04:03:11;-8.40;99.90
8313;DHT22;4194;43.408;24.626;2024-01-10T04:05:37;-7.70;99.90
8313;DHT22;4194;43.408;24.626;2024-01-10T04:08:03;-7.50;99.90
8313;DHT22;4194;43.408;24.626;2024-01-10T04:10:29;-7.90;99.90
8313;DHT22;4194;43.408;24.626;2024-01-10T04:12:55;-8.00;99.90
8313;DHT22;4194;43.408;24.626;2024-01-10T04:15:20;-8.20;99.90
8313;DHT22;4194;43.408;24.626;2024-01-10T04:17:46;-8.20;99.90
8313;DHT22;4194;43.408;24.626;2024-01-10T04:20:13;-8.20;99.90
8313;DHT22;4194;43.408;24.626;2024-01-10T04:22:38;-7.80;99.90
8313;DHT22;4194;43.408;24.626;2024-01-10T04:25:06;-7.40;99.90
8313;DHT22;4194;43.408;24.626;2024-01-10T04:27:32;-7.90;99.90
8313;DHT22;4194;43.408;24.626;2024-01-10T04:29:58;-8.20;99.90
8313;DHT22;4194;43.408;24.626;2024-01-10T04:32:24;-8.30;99.90
8313;DHT22;4194;43.408;24.626;2024-01-10T04:34:49;-8.20;99.90
8313;DHT22;4194;43.408;24.626;2024-01-10T04:37:16;-8.20;99.90
8313;DHT22;4194;43.408;24.626;2024-01-10T04:39:41;-8.20;99.90
8313;DHT22;4194;43.408;24.626;2024-01-10T04:42:11;-8.70;99.90
8313;DHT22;4194;43.408;24.626;2024-01-10T04:44:37;-8.30;99.90
8313;DHT22;4194;43.408;24.626;2024-01-10T04:47:03;-8.50;99.90
8313;DHT22;4194;43.408;24.626;2024-01-10T04:49:29;-8.00;99.90
8313;DHT22;4194;43.408;24.626;2024-01-10T04:51:55;-7.50;99.90
8313;DHT22;4194;43.408;24.626;2024-01-10T04:54:21;-8.50;99.90
8313;DHT22;4194;43.408;24.626;2024-01-10T04:56:47;-8.40;99.90
8313;DHT22;4194;43.408;24.626;2024-01-10T04:59:12;-8.10;99.90
8313;DHT22;4194;43.408;24.626;2024-01-10T05:01:38;-8.30;99.90
8313;DHT22;4194;43.408;24.626;2024-01-10T05:04:04;-8.50;99.90
8313;DHT22;4194;43.408;24.626;2024-01-10T05:06:30;-8.20;99.90
8313;DHT22;4194;43.408;24.626;2024-01-10T05:08:56;-8.50;99.90
8313;DHT22;4194;43.408;24.626;2024-01-10T05:11:24;-7.50;99.90
8313;DHT22;4194;43.408;24.626;2024-01-10T05:13:50;-8.20;99.90
8313;DHT22;4194;43.408;24.626;2024-01-10T05:16:16;-8.30;99.90
8313;DHT22;4194;43.408;24.626;2024-01-10T05:18:42;-8.50;99.90
8313;DHT22;4194;43.408;24.626;2024-01-10T05:21:08;-8.60;99.90
8313;DHT22;4194;43.408;24.626;2024-01-10T05:23:34;-7.90;99.90
8313;DHT22;4194;43.408;24.626;2024-01-10T05:26:01;-8.20;99.90
8313;DHT22;4194;43.408;24.626;2024-01-10T05:28:26;-8.60;99.90
8313;DHT22;4194;43.408;24.626;2024-01-10T05:30:52;-8.20;99.90
8313;DHT22;4194;43.408;24.626;2024-01-10T05:33:19;-8.50;99.90
8313;DHT22;4194;43.408;24.626;2024-01-10T05:35:45;-8.90;99.90
8313;DHT22;4194;43.408;24.626;2024-01-10T05:38:11;-8.20;99.90
8313;DHT22;4194;43.408;24.626;2024-01-10T05:40:37;-8.30;99.90
8313;DHT22;4194;43.408;24.626;2024-01-10T05:43:02;-8.70;99.90
8313;DHT22;4194;43.408;24.626;2024-01-10T05:45:28;-8.80;99.90
8313;DHT22;4194;43.408;24.626;2024-01-10T05:47:54;-8.50;99.90
8313;DHT22;4194;43.408;24.626;2024-01-10T05:50:20;-8.60;99.90
8313;DHT22;4194;43.408;24.626;2024-01-10T05:52:47;-7.90;99.90
8313;DHT22;4194;43.408;24.626;2024-01-10T05:55:12;-8.80;99.90
8313;DHT22;4194;43.408;24.626;2024-01-10T05:57:38;-8.70;99.90
8313;DHT22;4194;43.408;24.626;2024-01-10T06:00:05;-8.80;99.90
8313;DHT22;4194;43.408;24.626;2024-01-10T06:02:40;-8.80;99.90
8313;DHT22;4194;43.408;24.626;2024-01-10T06:05:07;-8.90;99.90
8313;DHT22;4194;43.408;24.626;2024-01-10T06:07:34;-8.80;99.90
8313;DHT22;4194;43.408;24.626;2024-01-10T06:10:00;-8.80;99.90
8313;DHT22;4194;43.408;24.626;2024-01-10T06:12:27;-8.30;99.90
8313;DHT22;4194;43.408;24.626;2024-01-10T06:14:52;-8.00;99.90
8313;DHT22;4194;43.408;24.626;2024-01-10T06:17:18;-8.40;99.90
8313;DHT22;4194;43.408;24.626;2024-01-10T06:19:44;-8.30;99.90
8313;DHT22;4194;43.408;24.626;2024-01-10T06:22:10;-8.30;99.90
8313;DHT22;4194;43.408;24.626;2024-01-10T06:24:36;-8.40;99.90
8313;DHT22;4194;43.408;24.626;2024-01-10T06:27:03;-7.40;99.90
8313;DHT22;4194;43.408;24.626;2024-01-10T06:29:30;-7.60;99.90
8313;DHT22;4194;43.408;24.626;2024-01-10T06:31:55;-8.10;99.90
8313;DHT22;4194;43.408;24.626;2024-01-10T06:34:22;-8.10;99.90
8313;DHT22;4194;43.408;24.626;2024-01-10T06:36:48;-7.40;99.90
8313;DHT22;4194;43.408;24.626;2024-01-10T06:39:14;-8.20;99.90
8313;DHT22;4194;43.408;24.626;2024-01-10T06:41:41;-6.70;99.90
8313;DHT22;4194;43.408;24.626;2024-01-10T06:44:08;-7.10;99.90
8313;DHT22;4194;43.408;24.626;2024-01-10T06:46:33;-8.50;99.90
8313;DHT22;4194;43.408;24.626;2024-01-10T06:48:59;-7.00;99.90
8313;DHT22;4194;43.408;24.626;2024-01-10T06:51:25;-6.80;99.90
8313;DHT22;4194;43.408;24.626;2024-01-10T06:53:52;-8.10;99.90
8313;DHT22;4194;43.408;24.626;2024-01-10T06:56:18;-7.80;99.90
8313;DHT22;4194;43.408;24.626;2024-01-10T06:58:43;-7.20;99.90
8313;DHT22;4194;43.408;24.626;2024-01-10T07:01:13;-6.80;99.90
8313;DHT22;4194;43.408;24.626;2024-01-10T07:03:40;-7.30;99.90
8313;DHT22;4194;43.408;24.626;2024-01-10T07:06:05;-5.80;99.90
8313;DHT22;4194;43.408;24.626;2024-01-10T07:08:31;-7.10;99.90
8313;DHT22;4194;43.408;24.626;2024-01-10T07:10:57;-7.50;99.90
8313;DHT22;4194;43.408;24.626;2024-01-10T07:13:23;-7.30;99.90
8313;DHT22;4194;43.408;24.626;2024-01-10T07:15:49;-6.80;99.90
8313;DHT22;4194;43.408;24.626;2024-01-10T07:18:17;-6.00;99.90
8313;DHT22;4194;43.408;24.626;2024-01-10T07:20:42;-7.90;99.90
8313;DHT22;4194;43.408;24.626;2024-01-10T07:23:08;-6.80;99.90
8313;DHT22;4194;43.408;24.626;2024-01-10T07:25:33;-6.70;99.90
8313;DHT22;4194;43.408;24.626;2024-01-10T07:27:59;-7.10;99.90
8313;DHT22;4194;43.408;24.626;2024-01-10T07:30:26;-6.90;99.90
8313;DHT22;4194;43.408;24.626;2024-01-10T07:32:51;-6.70;99.90
8313;DHT22;4194;43.408;24.626;2024-01-10T07:35:17;-6.80;99.90
8313;DHT22;4194;43.408;24.626;2024-01-10T07:37:43;-6.80;99.90
8313;DHT22;4194;43.408;24.626;2024-01-10T07:40:09;-5.90;99.90
8313;DHT22;4194;43.408;24.626;2024-01-10T07:42:38;-6.10;99.90
8313;DHT22;4194;43.408;24.626;2024-01-10T07:45:05;-6.40;99.90
8313;DHT22;4194;43.408;24.626;2024-01-10T07:47:31;-6.00;99.90
8313;DHT22;4194;43.408;24.626;2024-01-10T07:50:00;-5.40;99.90
8313;DHT22;4194;43.408;24.626;2024-01-10T07:52:26;-6.20;99.90
8313;DHT22;4194;43.408;24.626;2024-01-10T07:54:52;-5.60;99.90
8313;DHT22;4194;43.408;24.626;2024-01-10T07:57:18;-5.60;99.90
8313;DHT22;4194;43.408;24.626;2024-01-10T07:59:47;-6.50;99.90
8313;DHT22;4194;43.408;24.626;2024-01-10T08:02:13;-5.80;99.90
8313;DHT22;4194;43.408;24.626;2024-01-10T08:04:38;-4.80;99.90
8313;DHT22;4194;43.408;24.626;2024-01-10T08:07:04;-4.90;99.90
8313;DHT22;4194;43.408;24.626;2024-01-10T08:09:30;-4.10;99.90
8313;DHT22;4194;43.408;24.626;2024-01-10T08:11:55;-4.20;99.90
8313;DHT22;4194;43.408;24.626;2024-01-10T08:14:21;-4.70;99.90
8313;DHT22;4194;43.408;24.626;2024-01-10T08:16:47;-4.00;99.90
8313;DHT22;4194;43.408;24.626;2024-01-10T08:19:13;-4.00;99.90
8313;DHT22;4194;43.408;24.626;2024-01-10T08:21:38;-5.10;99.90
8313;DHT22;4194;43.408;24.626;2024-01-10T08:24:05;-4.60;99.90
8313;DHT22;4194;43.408;24.626;2024-01-10T08:26:31;-4.40;99.90
8313;DHT22;4194;43.408;24.626;2024-01-10T08:28:57;-4.90;99.90
8313;DHT22;4194;43.408;24.626;2024-01-10T08:31:23;-4.40;99.90
8313;DHT22;4194;43.408;24.626;2024-01-10T08:33:49;-4.60;99.90
8313;DHT22;4194;43.408;24.626;2024-01-10T08:36:15;-2.90;99.90
8313;DHT22;4194;43.408;24.626;2024-01-10T08:38:41;-3.60;99.90
8313;DHT22;4194;43.408;24.626;2024-01-10T08:41:10;-3.70;99.90
8313;DHT22;4194;43.408;24.626;2024-01-10T08:43:39;-3.90;99.90
8313;DHT22;4194;43.408;24.626;2024-01-10T08:46:04;-3.60;99.90
8313;DHT22;4194;43.408;24.626;2024-01-10T08:48:30;-3.60;99.90
8313;DHT22;4194;43.408;24.626;2024-01-10T08:50:56;-3.50;99.90
8313;DHT22;4194;43.408;24.626;2024-01-10T08:53:22;-3.70;99.90
8313;DHT22;4194;43.408;24.626;2024-01-10T08:55:48;-3.40;99.90
8313;DHT22;4194;43.408;24.626;2024-01-10T08:58:13;-3.20;99.90
8313;DHT22;4194;43.408;24.626;2024-01-10T09:00:39;-3.10;99.90
8313;DHT22;4194;43.408;24.626;2024-01-10T09:03:05;-3.20;99.90
8313;DHT22;4194;43.408;24.626;2024-01-10T09:05:30;-3.20;99.90
8313;DHT22;4194;43.408;24.626;2024-01-10T09:07:56;-3.10;99.90
8313;DHT22;4194;43.408;24.626;2024-01-10T09:10:22;-2.10;99.90
8313;DHT22;4194;43.408;24.626;2024-01-10T09:12:48;-2.90;99.90
8313;DHT22;4194;43.408;24.626;2024-01-10T09:15:14;-2.80;99.90
8313;DHT22;4194;43.408;24.626;2024-01-10T09:17:43;-3.00;99.90
8313;DHT22;4194;43.408;24.626;2024-01-10T09:20:10;-2.70;99.90
8313;DHT22;4194;43.408;24.626;2024-01-10T09:22:37;-2.80;99.90
8313;DHT22;4194;43.408;24.626;2024-01-10T09:25:04;-2.70;99.90
8313;DHT22;4194;43.408;24.626;2024-01-10T09:27:32;-2.40;99.90
8313;DHT22;4194;43.408;24.626;2024-01-10T09:29:59;-2.20;99.90
8313;DHT22;4194;43.408;24.626;2024-01-10T09:32:25;-2.80;99.20
8313;DHT22;4194;43.408;24.626;2024-01-10T09:34:51;-2.50;98.30
8313;DHT22;4194;43.408;24.626;2024-01-10T09:37:17;-2.30;97.70
8313;DHT22;4194;43.408;24.626;2024-01-10T09:39:42;-2.80;97.20
8313;DHT22;4194;43.408;24.626;2024-01-10T09:42:08;-2.40;96.20
8313;DHT22;4194;43.408;24.626;2024-01-10T09:44:34;-2.40;95.60
8313;DHT22;4194;43.408;24.626;2024-01-10T09:47:00;-2.30;95.60
8313;DHT22;4194;43.408;24.626;2024-01-10T09:49:26;-2.00;95.50
8313;DHT22;4194;43.408;24.626;2024-01-10T09:51:58;-1.90;95.80
8313;DHT22;4194;43.408;24.626;2024-01-10T09:54:29;-2.20;95.30
8313;DHT22;4194;43.408;24.626;2024-01-10T09:56:59;-2.10;94.40
8313;DHT22;4194;43.408;24.626;2024-01-10T09:59:24;-2.00;94.00
8313;DHT22;4194;43.408;24.626;2024-01-10T10:01:51;-2.20;94.40
8313;DHT22;4194;43.408;24.626;2024-01-10T10:04:18;-0.80;94.60
8313;DHT22;4194;43.408;24.626;2024-01-10T10:06:45;-1.70;93.40
8313;DHT22;4194;43.408;24.626;2024-01-10T10:09:12;-2.10;93.40
8313;DHT22;4194;43.408;24.626;2024-01-10T10:11:38;-1.30;93.70
8313;DHT22;4194;43.408;24.626;2024-01-10T10:14:18;-1.40;93.40
8313;DHT22;4194;43.408;24.626;2024-01-10T10:16:43;-1.20;92.50
8313;DHT22;4194;43.408;24.626;2024-01-10T10:19:10;-1.90;91.70
8313;DHT22;4194;43.408;24.626;2024-01-10T10:21:37;-1.60;92.40
8313;DHT22;4194;43.408;24.626;2024-01-10T10:24:03;-1.40;92.50
8313;DHT22;4194;43.408;24.626;2024-01-10T10:26:32;-1.30;91.10
8313;DHT22;4194;43.408;24.626;2024-01-10T10:28:58;-1.20;90.60
8313;DHT22;4194;43.408;24.626;2024-01-10T10:31:24;-0.40;91.80
8313;DHT22;4194;43.408;24.626;2024-01-10T10:33:50;-0.50;91.50
8313;DHT22;4194;43.408;24.626;2024-01-10T10:36:17;0.00;90.20
8313;DHT22;4194;43.408;24.626;2024-01-10T10:38:42;0.00;89.50
8313;DHT22;4194;43.408;24.626;2024-01-10T10:41:08;0.40;88.70
8313;DHT22;4194;43.408;24.626;2024-01-10T10:43:37;0.30;86.70
8313;DHT22;4194;43.408;24.626;2024-01-10T10:46:11;0.40;86.00
8313;DHT22;4194;43.408;24.626;2024-01-10T10:48:40;1.00;87.10
8313;DHT22;4194;43.408;24.626;2024-01-10T10:51:15;0.40;84.40
8313;DHT22;4194;43.408;24.626;2024-01-10T10:53:42;1.10;84.70
8313;DHT22;4194;43.408;24.626;2024-01-10T10:56:12;0.30;84.00
8313;DHT22;4194;43.408;24.626;2024-01-10T10:58:39;1.20;85.70
8313;DHT22;4194;43.408;24.626;2024-01-10T11:01:11;1.10;85.40
8313;DHT22;4194;43.408;24.626;2024-01-10T11:03:38;1.30;85.90
8313;DHT22;4194;43.408;24.626;2024-01-10T11:06:06;1.40;86.80
8313;DHT22;4194;43.408;24.626;2024-01-10T11:09:05;1.40;86.20
8313;DHT22;4194;43.408;24.626;2024-01-10T11:11:56;1.30;86.20
8313;DHT22;4194;43.408;24.626;2024-01-10T11:23:10;1.60;85.60
8313;DHT22;4194;43.408;24.626;2024-01-10T11:25:42;2.00;85.90
8313;DHT22;4194;43.408;24.626;2024-01-10T11:28:07;1.80;83.10
8313;DHT22;4194;43.408;24.626;2024-01-10T11:30:53;1.50;83.30
8313;DHT22;4194;43.408;24.626;2024-01-10T11:33:24;1.50;83.30
8313;DHT22;4194;43.408;24.626;2024-01-10T11:38:31;2.00;81.90
8313;DHT22;4194;43.408;24.626;2024-01-10T11:40:57;2.00;82.70
8313;DHT22;4194;43.408;24.626;2024-01-10T11:43:23;1.60;83.50
8313;DHT22;4194;43.408;24.626;2024-01-10T11:45:54;1.60;83.10
8313;DHT22;4194;43.408;24.626;2024-01-10T11:48:27;1.50;82.90
8313;DHT22;4194;43.408;24.626;2024-01-10T11:50:54;1.70;82.70
8313;DHT22;4194;43.408;24.626;2024-01-10T11:53:40;1.80;82.20
8313;DHT22;4194;43.408;24.626;2024-01-10T11:56:09;2.10;81.00
8313;DHT22;4194;43.408;24.626;2024-01-10T11:59:03;2.10;80.90
8313;DHT22;4194;43.408;24.626;2024-01-10T12:01:34;2.00;79.60
8313;DHT22;4194;43.408;24.626;2024-01-10T12:04:00;1.90;82.10
8313;DHT22;4194;43.408;24.626;2024-01-10T12:06:27;1.90;80.70
8313;DHT22;4194;43.408;24.626;2024-01-10T12:08:53;1.60;80.30
8313;DHT22;4194;43.408;24.626;2024-01-10T12:11:19;1.60;80.00
8313;DHT22;4194;43.408;24.626;2024-01-10T12:13:45;1.40;81.90
8313;DHT22;4194;43.408;24.626;2024-01-10T12:16:12;1.60;81.60
8313;DHT22;4194;43.408;24.626;2024-01-10T12:18:39;1.70;80.10
8313;DHT22;4194;43.408;24.626;2024-01-10T12:21:05;2.00;79.00
8313;DHT22;4194;43.408;24.626;2024-01-10T12:23:31;2.40;78.80
8313;DHT22;4194;43.408;24.626;2024-01-10T12:26:04;2.60;77.30
8313;DHT22;4194;43.408;24.626;2024-01-10T12:28:36;2.50;76.60
8313;DHT22;4194;43.408;24.626;2024-01-10T12:31:03;3.20;75.00
8313;DHT22;4194;43.408;24.626;2024-01-10T12:33:30;3.40;73.00
8313;DHT22;4194;43.408;24.626;2024-01-10T12:36:12;4.40;71.40
8313;DHT22;4194;43.408;24.626;2024-01-10T12:38:40;5.70;69.40
8313;DHT22;4194;43.408;24.626;2024-01-10T12:41:06;8.90;61.80
8313;DHT22;4194;43.408;24.626;2024-01-10T12:43:35;11.60;52.70
8313;DHT22;4194;43.408;24.626;2024-01-10T12:46:11;11.70;48.30
8313;DHT22;4194;43.408;24.626;2024-01-10T12:48:40;9.40;49.80
8313;DHT22;4194;43.408;24.626;2024-01-10T12:51:10;7.10;54.10
8313;DHT22;4194;43.408;24.626;2024-01-10T12:53:40;4.50;58.50
8313;DHT22;4194;43.408;24.626;2024-01-10T12:56:07;2.50;61.80
8313;DHT22;4194;43.408;24.626;2024-01-10T12:58:35;2.10;65.60
8313;DHT22;4194;43.408;24.626;2024-01-10T13:01:05;1.40;67.80
8313;DHT22;4194;43.408;24.626;2024-01-10T13:03:31;0.90;71.00
8313;DHT22;4194;43.408;24.626;2024-01-10T13:05:57;0.50;71.80
8313;DHT22;4194;43.408;24.626;2024-01-10T13:08:24;0.70;75.00
8313;DHT22;4194;43.408;24.626;2024-01-10T13:10:49;-0.20;77.10
8313;DHT22;4194;43.408;24.626;2024-01-10T13:13:15;-0.50;79.60
8313;DHT22;4194;43.408;24.626;2024-01-10T13:15:43;-0.80;80.90
8313;DHT22;4194;43.408;24.626;2024-01-10T13:18:09;-0.90;80.70
8313;DHT22;4194;43.408;24.626;2024-01-10T13:20:35;-0.90;80.80
8313;DHT22;4194;43.408;24.626;2024-01-10T13:23:01;-0.90;81.50
8313;DHT22;4194;43.408;24.626;2024-01-10T13:25:27;-0.90;81.70
8313;DHT22;4194;43.408;24.626;2024-01-10T13:27:54;-0.90;81.20
8313;DHT22;4194;43.408;24.626;2024-01-10T13:30:20;-1.10;82.50
8313;DHT22;4194;43.408;24.626;2024-01-10T13:32:46;-1.20;82.70
8313;DHT22;4194;43.408;24.626;2024-01-10T13:35:15;-1.10;83.80
8313;DHT22;4194;43.408;24.626;2024-01-10T13:37:42;-1.40;84.50
8313;DHT22;4194;43.408;24.626;2024-01-10T13:40:09;-1.10;85.20
8313;DHT22;4194;43.408;24.626;2024-01-10T13:42:44;-1.30;85.60
8313;DHT22;4194;43.408;24.626;2024-01-10T13:45:10;-1.00;85.70
8313;DHT22;4194;43.408;24.626;2024-01-10T13:47:39;-1.10;86.70
8313;DHT22;4194;43.408;24.626;2024-01-10T13:50:06;-1.60;85.90
8313;DHT22;4194;43.408;24.626;2024-01-10T13:52:32;-1.30;86.30
8313;DHT22;4194;43.408;24.626;2024-01-10T13:54:59;-1.60;85.40
8313;DHT22;4194;43.408;24.626;2024-01-10T13:57:25;-1.70;85.60
8313;DHT22;4194;43.408;24.626;2024-01-10T13:59:50;-1.40;86.00
8313;DHT22;4194;43.408;24.626;2024-01-10T14:02:16;-1.50;85.30
8313;DHT22;4194;43.408;24.626;2024-01-10T14:04:45;-1.20;87.10
8313;DHT22;4194;43.408;24.626;2024-01-10T14:07:10;-1.90;87.40
8313;DHT22;4194;43.408;24.626;2024-01-10T14:09:36;-2.50;87.20
8313;DHT22;4194;43.408;24.626;2024-01-10T14:12:02;-1.70;87.60
8313;DHT22;4194;43.408;24.626;2024-01-10T14:14:28;-2.20;87.10
8313;DHT22;4194;43.408;24.626;2024-01-10T14:16:54;-1.50;86.60
8313;DHT22;4194;43.408;24.626;2024-01-10T14:19:19;-2.00;87.00
8313;DHT22;4194;43.408;24.626;2024-01-10T14:21:45;-1.60;87.70
8313;DHT22;4194;43.408;24.626;2024-01-10T14:24:12;-2.20;87.10
8313;DHT22;4194;43.408;24.626;2024-01-10T14:26:37;-2.00;88.40
8313;DHT22;4194;43.408;24.626;2024-01-10T14:29:03;-2.40;87.00
8313;DHT22;4194;43.408;24.626;2024-01-10T14:31:30;-2.20;88.60
8313;DHT22;4194;43.408;24.626;2024-01-10T14:33:56;-2.30;89.50
8313;DHT22;4194;43.408;24.626;2024-01-10T14:36:22;-2.40;89.90
8313;DHT22;4194;43.408;24.626;2024-01-10T14:38:48;-2.40;90.40
8313;DHT22;4194;43.408;24.626;2024-01-10T14:41:14;-2.40;91.00
8313;DHT22;4194;43.408;24.626;2024-01-10T14:43:39;-3.20;90.80
8313;DHT22;4194;43.408;24.626;2024-01-10T14:46:05;-2.80;90.90
8313;DHT22;4194;43.408;24.626;2024-01-10T14:48:31;-2.70;90.60
8313;DHT22;4194;43.408;24.626;2024-01-10T14:50:58;-3.30;91.10
8313;DHT22;4194;43.408;24.626;2024-01-10T14:53:25;-3.00;91.20
8313;DHT22;4194;43.408;24.626;2024-01-10T14:55:51;-2.80;91.50
8313;DHT22;4194;43.408;24.626;2024-01-10T14:58:17;-2.30;92.50
8313;DHT22;4194;43.408;24.626;2024-01-10T15:00:44;-3.20;92.30
8313;DHT22;4194;43.408;24.626;2024-01-10T15:03:10;-2.70;93.00
8313;DHT22;4194;43.408;24.626;2024-01-10T15:05:36;-3.60;93.50
8313;DHT22;4194;43.408;24.626;2024-01-10T15:08:02;-3.10;93.80
8313;DHT22;4194;43.408;24.626;2024-01-10T15:10:31;-3.10;94.30
8313;DHT22;4194;43.408;24.626;2024-01-10T15:12:56;-2.80;93.70
8313;DHT22;4194;43.408;24.626;2024-01-10T15:15:22;-3.30;93.70
8313;DHT22;4194;43.408;24.626;2024-01-10T15:17:48;-3.00;93.90
8313;DHT22;4194;43.408;24.626;2024-01-10T15:20:13;-3.50;94.10
8313;DHT22;4194;43.408;24.626;2024-01-10T15:22:39;-3.60;95.10
8313;DHT22;4194;43.408;24.626;2024-01-10T15:25:06;-3.50;95.50
8313;DHT22;4194;43.408;24.626;2024-01-10T15:27:32;-3.60;96.10
8313;DHT22;4194;43.408;24.626;2024-01-10T15:29:58;-3.70;97.30
8313;DHT22;4194;43.408;24.626;2024-01-10T15:32:23;-3.70;97.90
8313;DHT22;4194;43.408;24.626;2024-01-10T15:34:50;-3.30;98.20
8313;DHT22;4194;43.408;24.626;2024-01-10T15:37:15;-3.80;99.80
8313;DHT22;4194;43.408;24.626;2024-01-10T15:39:41;-3.80;99.90
8313;DHT22;4194;43.408;24.626;2024-01-10T15:42:07;-3.80;99.90
8313;DHT22;4194;43.408;24.626;2024-01-10T15:44:41;-3.80;99.90
8313;DHT22;4194;43.408;24.626;2024-01-10T15:47:08;-3.60;99.90
8313;DHT22;4194;43.408;24.626;2024-01-10T15:49:34;-4.00;99.90
8313;DHT22;4194;43.408;24.626;2024-01-10T15:51:59;-3.80;99.90
8313;DHT22;4194;43.408;24.626;2024-01-10T15:54:25;-4.00;99.90
8313;DHT22;4194;43.408;24.626;2024-01-10T15:56:51;-4.00;99.90